Time;durP1;ratioP1;P1;durP2;ratioP2;P2;SDS_P1;SDS_P2;PMS_P1;PMS_P2;Temp;Humidity;BMP_temperature;BMP_pressure;BME280_temperature;BME280_humidity;BME280_pressure;Samples;Min_cycle;Max_cycle;Signal;HPM_P1;HPM_P2
2022/12/31 00:00:45;;;;;;;;;0.00;0.00;;;;;15.89;81.45;100296.75;2106293;28;46176;-62
2022/12/31 00:01:45;;;;;;;;;0.00;0.00;;;;;15.88;81.67;100297.72;2106133;28;46604;-62
2022/12/31 00:02:45;;;;;;;;;1.33;1.00;;;;;15.88;81.90;100294.16;2106226;27;46293;-62
2022/12/31 00:03:46;;;;;;;;;0.00;0.00;;;;;15.88;81.57;100287.00;2106242;28;46793;-63
2022/12/31 00:04:46;;;;;;;;;0.33;0.33;;;;;15.88;81.79;100291.50;2105937;27;48197;-63
2022/12/31 00:05:47;;;;;;;;;1.00;1.00;;;;;15.88;81.41;100310.22;2098440;28;46464;-63
2022/12/31 00:06:47;;;;;;;;;0.00;0.00;;;;;15.87;81.91;100308.47;2097293;28;46204;-64
2022/12/31 00:07:47;;;;;;;;;0.67;0.67;;;;;15.86;81.71;100294.22;2106325;28;45645;-63
2022/12/31 00:08:49;;;;;;;;;1.00;0.00;;;;;15.86;82.22;100296.91;2106129;28;46469;-63
2022/12/31 00:09:50;;;;;;;;;0.00;0.00;;;;;15.86;81.92;100318.31;2106251;28;46038;-62
2022/12/31 00:10:50;;;;;;;;;0.33;0.33;;;;;15.86;81.93;100306.72;2106664;28;45450;-61
2022/12/31 00:11:51;;;;;;;;;1.00;1.00;;;;;15.84;81.89;100293.44;2106041;28;47174;-62
2022/12/31 00:12:51;;;;;;;;;1.67;0.67;;;;;15.85;81.97;100296.97;2106691;28;46391;-63
2022/12/31 00:13:52;;;;;;;;;1.00;1.00;;;;;15.85;82.31;100318.38;2098746;28;46278;-62
2022/12/31 00:14:56;;;;;;;;;2.25;0.00;;;;;15.84;81.98;100304.13;2099681;28;46522;-63
2022/12/31 00:16:08;;;;;;;;;1.75;1.75;;;;;15.84;82.20;100303.28;2105779;27;46067;-62
2022/12/31 00:17:09;;;;;;;;;1.00;1.00;;;;;15.84;82.07;100304.13;2099147;28;47346;-63
2022/12/31 00:18:09;;;;;;;;;0.33;0.33;;;;;15.85;81.64;100299.66;2106018;28;45507;-63
2022/12/31 00:19:11;;;;;;;;;0.00;0.00;;;;;15.85;81.58;100311.22;2105999;27;46742;-62
2022/12/31 00:20:11;;;;;;;;;1.00;0.25;;;;;15.84;82.00;100314.84;2105719;28;46322;-61
2022/12/31 00:21:12;;;;;;;;;0.67;0.67;;;;;15.86;82.23;100293.34;2105385;28;46020;-62
2022/12/31 00:22:13;;;;;;;;;1.00;1.00;;;;;15.85;82.16;100286.28;2105598;28;46534;-63
2022/12/31 00:23:13;;;;;;;;;1.67;1.00;;;;;15.84;81.81;100301.47;2109483;27;46537;-62
2022/12/31 00:24:13;;;;;;;;;2.00;1.33;;;;;15.84;82.10;100295.25;2114734;27;46299;-61
2022/12/31 00:25:14;;;;;;;;;2.67;2.00;;;;;15.85;81.81;100299.66;2106132;27;46201;-61
2022/12/31 00:26:20;;;;;;;;;1.00;1.00;;;;;15.84;82.13;100309.50;2107446;27;46350;-62
2022/12/31 00:27:21;;;;;;;;;1.00;0.25;;;;;15.84;82.00;100322.88;2114616;27;46684;-62
2022/12/31 00:28:21;;;;;;;;;0.33;0.33;;;;;15.85;81.81;100305.00;2103198;28;46839;-62
2022/12/31 00:29:21;;;;;;;;;0.67;0.67;;;;;15.84;82.02;100320.19;2105338;27;46684;-61
2022/12/31 00:30:22;;;;;;;;;1.00;0.00;;;;;15.85;81.97;100310.34;2114714;27;46958;-60
2022/12/31 00:31:24;;;;;;;;;0.00;0.00;;;;;15.84;81.60;100317.50;2112329;27;46295;-61
2022/12/31 00:32:25;;;;;;;;;1.50;1.50;;;;;15.84;81.87;100312.16;2113670;27;46571;-62
2022/12/31 00:33:25;;;;;;;;;0.50;0.50;;;;;15.85;81.43;100323.72;2113830;27;46627;-61
2022/12/31 00:34:25;;;;;;;;;0.33;0.33;;;;;15.85;81.54;100318.38;2114524;27;47102;-64
2022/12/31 00:35:26;;;;;;;;;0.67;0.67;;;;;15.86;81.56;100322.78;2114522;27;46623;-61
2022/12/31 00:36:30;;;;;;;;;0.33;0.33;;;;;15.86;81.25;100329.00;2107139;27;46555;-63
2022/12/31 00:37:30;;;;;;;;;1.50;0.25;;;;;15.87;81.68;100324.53;2109054;27;47306;-61
2022/12/31 00:38:31;;;;;;;;;1.00;1.00;;;;;15.87;81.70;100329.88;2114614;27;45485;-62
2022/12/31 00:39:31;;;;;;;;;0.33;0.33;;;;;15.87;81.71;100324.53;2103323;28;46713;-62
2022/12/31 00:40:31;;;;;;;;;1.33;0.33;;;;;15.87;81.60;100316.50;2094730;28;47012;-62
2022/12/31 00:41:32;;;;;;;;;1.00;1.00;;;;;15.89;81.12;100317.31;2105017;28;46609;-62
2022/12/31 00:42:33;;;;;;;;;1.00;1.00;;;;;15.89;81.34;100333.38;2114293;27;46643;-61
2022/12/31 00:43:34;;;;;;;;;2.33;2.33;;;;;15.90;80.95;100332.41;2114064;27;46264;-62
2022/12/31 00:44:34;;;;;;;;;2.67;1.33;;;;;15.93;80.78;100363.50;2112691;27;46569;-61
2022/12/31 00:45:34;;;;;;;;;2.00;1.00;;;;;15.93;81.19;100347.44;2111669;27;46711;-62
2022/12/31 00:46:34;;;;;;;;;0.00;0.00;;;;;15.94;80.98;100343.81;2105488;27;46279;-61
2022/12/31 00:47:35;;;;;;;;;0.33;0.00;;;;;15.94;81.15;100343.81;2103036;28;47066;-61
2022/12/31 00:48:36;;;;;;;;;0.00;0.00;;;;;15.94;81.13;100328.63;2112993;27;46538;-61
2022/12/31 00:49:36;;;;;;;;;1.00;0.33;;;;;15.94;81.11;100331.31;2113559;27;46540;-62
2022/12/31 00:50:36;;;;;;;;;1.00;1.00;;;;;15.95;81.21;100337.53;2109265;27;46762;-62
2022/12/31 00:51:37;;;;;;;;;0.33;0.00;;;;;15.95;81.67;100338.41;2106187;28;45500;-62
2022/12/31 00:52:37;;;;;;;;;0.33;0.33;;;;;15.95;81.21;100350.91;2111549;27;46457;-62
2022/12/31 00:53:38;;;;;;;;;0.00;0.00;;;;;15.94;81.63;100320.59;2112588;27;46138;-61
2022/12/31 00:54:38;;;;;;;;;0.00;0.00;;;;;15.94;81.17;100341.16;2114238;27;45707;-62
2022/12/31 00:55:38;;;;;;;;;0.67;0.00;;;;;15.94;81.66;100346.50;2113418;27;46306;-61
2022/12/31 00:56:39;;;;;;;;;0.67;0.00;;;;;15.93;81.42;100336.75;2105371;28;46548;-61
2022/12/31 00:57:39;;;;;;;;;0.00;0.00;;;;;15.93;81.05;100342.97;2105134;28;46230;-61
2022/12/31 00:58:40;;;;;;;;;0.00;0.00;;;;;15.93;81.12;100336.75;2107996;27;46273;-61
2022/12/31 00:59:40;;;;;;;;;0.67;0.33;;;;;15.93;81.81;100342.97;2114302;27;45128;-62
2022/12/31 01:00:41;;;;;;;;;0.00;0.00;;;;;15.94;81.27;100346.50;2113955;27;46642;-61
2022/12/31 01:01:41;;;;;;;;;1.00;1.00;;;;;15.92;81.53;100341.22;2112385;27;46234;-61
2022/12/31 01:02:41;;;;;;;;;2.00;0.00;;;;;15.93;81.10;100336.75;2114338;27;46251;-61
2022/12/31 01:03:42;;;;;;;;;0.67;0.67;;;;;15.94;81.44;100325.09;2100281;28;46135;-63
2022/12/31 01:04:43;;;;;;;;;1.00;0.75;;;;;15.94;81.08;100339.34;2103946;28;46629;-61
2022/12/31 01:05:43;;;;;;;;;0.00;0.00;;;;;15.95;81.22;100345.56;2113861;27;46693;-61
2022/12/31 01:06:44;;;;;;;;;0.33;0.33;;;;;15.95;81.46;100342.88;2113651;27;46163;-64
2022/12/31 01:07:44;;;;;;;;;0.00;0.00;;;;;15.94;81.36;100343.81;2114343;27;45608;-62
2022/12/31 01:08:47;;;;;;;;;1.33;0.33;;;;;15.95;81.33;100346.44;2113014;27;45482;-62
2022/12/31 01:09:47;;;;;;;;;0.50;0.50;;;;;15.96;80.75;100353.50;2112645;27;46392;-62
2022/12/31 01:12:07;;;;;;;;;0.25;0.00;;;;;15.98;81.03;100354.28;2105932;28;46033;-62
2022/12/31 01:13:08;;;;;;;;;0.33;0.33;;;;;15.98;80.85;100353.44;2106260;27;46441;-61
2022/12/31 01:14:15;;;;;;;;;1.00;0.00;;;;;15.98;80.60;100359.66;2105713;28;46412;-61
2022/12/31 01:15:15;;;;;;;;;0.50;0.50;;;;;15.98;80.62;100365.00;2112732;27;46324;-61
2022/12/31 01:16:17;;;;;;;;;0.00;0.00;;;;;16.00;81.00;100349.72;2114036;27;46294;-61
2022/12/31 01:17:17;;;;;;;;;0.25;0.00;;;;;16.01;80.32;100366.69;2113973;27;46760;-61
2022/12/31 01:18:18;;;;;;;;;3.00;0.00;;;;;16.02;80.76;100361.25;2114603;27;45011;-61
2022/12/31 01:19:25;;;;;;;;;0.00;0.00;;;;;16.03;80.32;100360.31;2113920;27;46809;-62
2022/12/31 01:20:25;;;;;;;;;0.00;0.00;;;;;16.04;80.35;100361.16;2114132;27;46811;-62
2022/12/31 01:21:27;;;;;;;;;0.00;0.00;;;;;16.05;80.54;100378.97;2112130;27;46546;-61
2022/12/31 01:22:27;;;;;;;;;2.25;0.00;;;;;16.05;79.96;100366.44;2105553;28;46594;-62
2022/12/31 01:23:28;;;;;;;;;0.00;0.00;;;;;16.07;80.51;100344.94;2113836;27;46713;-61
2022/12/31 01:24:28;;;;;;;;;0.00;0.00;;;;;16.08;80.11;100354.72;2110962;27;46260;-61
2022/12/31 01:25:28;;;;;;;;;0.00;0.00;;;;;16.08;80.28;100349.34;2097210;28;47024;-62
2022/12/31 01:26:29;;;;;;;;;0.00;0.00;;;;;16.09;79.78;100359.97;2106826;27;46671;-61
2022/12/31 01:27:30;;;;;;;;;0.00;0.00;;;;;16.10;79.69;100369.75;2112773;27;45095;-61
2022/12/31 01:28:31;;;;;;;;;0.00;0.00;;;;;16.11;80.07;100379.50;2112112;27;46498;-60
2022/12/31 01:29:31;;;;;;;;;1.75;0.75;;;;;16.12;80.13;100361.63;2110103;27;46553;-61
2022/12/31 01:30:32;;;;;;;;;0.00;0.00;;;;;16.14;80.15;100365.13;2105332;28;46297;-61
2022/12/31 01:31:34;;;;;;;;;1.00;1.00;;;;;16.15;79.76;100373.06;2112812;27;45998;-61
2022/12/31 01:32:34;;;;;;;;;0.00;0.00;;;;;16.14;79.51;100371.34;2113073;27;46838;-61
2022/12/31 01:33:35;;;;;;;;;0.00;0.00;;;;;16.17;79.67;100375.69;2114038;27;46350;-62
2022/12/31 01:34:35;;;;;;;;;0.00;0.00;;;;;16.17;79.67;100368.50;2111556;27;46276;-61
2022/12/31 01:35:36;;;;;;;;;0.67;0.00;;;;;16.18;79.70;100358.66;2113177;27;46231;-61
2022/12/31 01:36:37;;;;;;;;;0.00;0.00;;;;;16.19;79.41;100379.13;2105765;27;46295;-61
2022/12/31 01:37:37;;;;;;;;;0.00;0.00;;;;;16.18;79.55;100380.94;2107533;27;47011;-61
2022/12/31 01:38:39;;;;;;;;;1.00;1.00;;;;;16.20;79.77;100375.50;2105294;28;45293;-62
2022/12/31 01:39:39;;;;;;;;;0.50;0.50;;;;;16.20;79.42;100378.19;2102415;27;46425;-61
2022/12/31 01:40:40;;;;;;;;;0.00;0.00;;;;;16.19;79.95;100385.34;2111809;27;45934;-61
2022/12/31 01:41:43;;;;;;;;;0.00;0.00;;;;;16.21;79.41;100387.94;2114084;27;46525;-61
2022/12/31 01:42:43;;;;;;;;;0.00;0.00;;;;;16.20;79.30;100380.88;2111892;27;46606;-61
2022/12/31 01:43:46;;;;;;;;;1.00;1.00;;;;;16.21;79.70;100390.63;2113882;27;45878;-61
2022/12/31 01:44:50;;;;;;;;;1.50;1.00;;;;;16.22;79.51;100395.03;2113924;27;46733;-61
2022/12/31 01:45:53;;;;;;;;;0.75;0.75;;;;;16.23;79.52;100395.91;2112129;27;45699;-61
2022/12/31 01:46:58;;;;;;;;;1.00;1.00;;;;;16.22;79.68;100389.69;2113823;27;46767;-61
2022/12/31 01:47:59;;;;;;;;;3.00;0.00;;;;;16.23;79.63;100398.59;2113383;27;46585;-61
2022/12/31 01:49:07;;;;;;;;;0.00;0.00;;;;;16.23;79.28;100394.09;2102998;28;45673;-61
2022/12/31 01:50:17;;;;;;;;;2.00;1.00;;;;;16.24;79.09;100398.50;2106204;27;46814;-61
2022/12/31 01:51:19;;;;;;;;;0.00;0.00;;;;;16.26;79.13;100393.06;2103042;28;46922;-61
2022/12/31 01:52:21;;;;;;;;;0.25;0.25;;;;;16.26;79.25;100388.59;2100645;28;46396;-62
2022/12/31 01:53:21;;;;;;;;;0.00;0.00;;;;;16.27;79.14;100389.47;2105292;27;46637;-62
2022/12/31 01:54:24;;;;;;;;;0.33;0.33;;;;;16.29;79.44;100395.63;2105374;27;46891;-62
2022/12/31 01:55:43;;;;;;;;;0.00;0.00;;;;;16.29;79.18;100387.59;2107868;27;46973;-62
2022/12/31 01:56:45;;;;;;;;;0.00;0.00;;;;;16.29;79.24;100392.94;2097319;28;46337;-61
2022/12/31 01:57:50;;;;;;;;;1.25;1.25;;;;;16.30;79.15;100400.03;2096338;28;45383;-61
2022/12/31 01:58:55;;;;;;;;;0.00;0.00;;;;;16.29;79.20;100395.63;2105503;27;46280;-61
2022/12/31 01:59:57;;;;;;;;;0.00;0.00;;;;;16.29;79.03;100396.47;2113871;27;46305;-61
2022/12/31 02:00:58;;;;;;;;;0.00;0.00;;;;;16.30;78.90;100400.03;2096828;28;46857;-61
2022/12/31 02:01:59;;;;;;;;;0.33;0.33;;;;;16.31;79.12;100407.09;2104205;27;46764;-61
2022/12/31 02:03:00;;;;;;;;;1.00;0.00;;;;;16.31;79.12;100407.97;2110510;27;46817;-61
2022/12/31 02:04:06;;;;;;;;;0.00;0.00;;;;;16.31;79.06;100399.94;2111456;27;47142;-60
2022/12/31 02:05:14;;;;;;;;;0.50;0.50;;;;;16.32;79.02;100406.16;2112843;27;46729;-62
2022/12/31 02:06:25;;;;;;;;;0.75;0.25;;;;;16.33;79.38;100395.38;2113306;27;47088;-62
2022/12/31 02:07:26;;;;;;;;;0.00;0.00;;;;;16.33;79.12;100408.75;2104582;28;47262;-61
2022/12/31 02:08:26;;;;;;;;;0.00;0.00;;;;;16.33;78.78;100394.50;2105046;27;46910;-60
2022/12/31 02:09:27;;;;;;;;;0.00;0.00;;;;;16.34;79.14;100401.59;2105570;28;45862;-61
2022/12/31 02:10:27;;;;;;;;;1.00;1.00;;;;;16.35;78.80;100400.63;2112223;27;46901;-60
2022/12/31 02:11:35;;;;;;;;;1.00;0.00;;;;;16.36;78.80;100421.13;2112360;27;45748;-61
2022/12/31 02:12:35;;;;;;;;;0.25;0.25;;;;;16.37;78.60;100401.44;2105590;28;46584;-61
2022/12/31 02:13:35;;;;;;;;;0.00;0.00;;;;;16.37;78.19;100396.94;2111622;27;46661;-62
2022/12/31 02:14:55;;;;;;;;;1.00;0.00;;;;;16.39;78.47;100399.56;2112946;27;46680;-61
2022/12/31 02:16:25;;;;;;;;;0.00;0.00;;;;;16.40;78.18;100412.88;2105114;28;46467;-61
2022/12/31 02:17:36;;;;;;;;;0.00;0.00;;;;;16.40;78.34;100394.13;2105493;28;45177;-61
2022/12/31 02:18:55;;;;;;;;;0.00;0.00;;;;;16.41;78.08;100389.63;2112872;27;46290;-61
2022/12/31 02:20:16;;;;;;;;;1.00;0.00;;;;;16.40;78.35;100402.16;2108335;27;46561;-61
2022/12/31 02:21:38;;;;;;;;;0.00;0.00;;;;;16.41;78.09;100398.53;2105903;27;46761;-61
2022/12/31 02:23:03;;;;;;;;;0.00;0.00;;;;;16.42;77.85;100399.41;2105720;27;46561;-62
2022/12/31 02:24:31;;;;;;;;;1.00;0.00;;;;;16.43;78.14;100399.31;2097237;28;46038;-61
2022/12/31 02:25:31;;;;;;;;;1.00;1.00;;;;;16.44;77.64;100429.66;2096344;28;46617;-61
2022/12/31 02:27:19;;;;;;;;;0.33;0.33;;;;;16.43;77.96;100407.34;2106779;27;46923;-62
2022/12/31 02:28:48;;;;;;;;;0.25;0.25;;;;;16.44;77.76;100400.19;2093174;28;46687;-60
2022/12/31 02:30:07;;;;;;;;;1.00;0.25;;;;;16.44;77.05;100419.81;2091248;28;46570;-61
2022/12/31 02:31:17;;;;;;;;;0.75;0.75;;;;;16.45;77.63;100421.53;2079075;28;46602;-61
2022/12/31 02:32:55;;;;;;;;;0.00;0.00;;;;;16.45;77.33;100408.13;2080080;28;47050;-61
2022/12/31 02:34:11;;;;;;;;;0.00;0.00;;;;;16.47;77.14;100400.88;2078795;28;46313;-61
2022/12/31 02:35:19;;;;;;;;;2.25;0.25;;;;;16.47;77.34;100400.88;2079352;28;45838;-62
2022/12/31 02:36:25;;;;;;;;;0.00;0.00;;;;;16.48;77.31;100407.97;2085655;28;46276;-62
2022/12/31 02:37:29;;;;;;;;;0.50;0.00;;;;;16.48;77.34;100413.34;2087368;28;45958;-62
2022/12/31 02:38:37;;;;;;;;;0.00;0.00;;;;;16.49;77.06;100408.84;2087301;28;46847;-62
2022/12/31 02:39:38;;;;;;;;;0.00;0.00;;;;;16.49;76.81;100414.19;2087062;28;46830;-62
2022/12/31 02:40:39;;;;;;;;;2.00;0.33;;;;;16.49;76.96;100414.19;2087081;28;46490;-61
2022/12/31 02:41:52;;;;;;;;;0.00;0.00;;;;;16.49;77.02;100415.06;2078838;28;46653;-62
2022/12/31 02:42:53;;;;;;;;;0.00;0.00;;;;;16.51;76.83;100419.47;2086606;28;45909;-61
2022/12/31 02:43:53;;;;;;;;;0.00;0.00;;;;;16.50;77.05;100407.91;2087059;28;46382;-62
2022/12/31 02:44:53;;;;;;;;;1.67;0.00;;;;;16.50;76.69;100421.28;2087491;28;46523;-61
2022/12/31 02:46:14;;;;;;;;;0.00;0.00;;;;;16.51;76.71;100428.38;2089359;28;46676;-64
2022/12/31 02:47:35;;;;;;;;;0.00;0.00;;;;;16.52;76.71;100421.25;2079170;28;46524;-61
2022/12/31 02:48:44;;;;;;;;;1.00;1.00;;;;;16.52;76.78;100424.78;2081843;28;46579;-62
2022/12/31 02:49:45;;;;;;;;;0.00;0.00;;;;;16.53;76.83;100422.97;2079057;28;46294;-62
2022/12/31 02:51:05;;;;;;;;;0.00;0.00;;;;;16.54;76.96;100430.06;2083330;28;46845;-61
2022/12/31 02:52:23;;;;;;;;;0.00;0.00;;;;;16.54;76.53;100435.41;2082762;28;47185;-61
2022/12/31 02:54:06;;;;;;;;;0.25;0.25;;;;;16.54;76.63;100428.25;2087579;28;45695;-62
2022/12/31 02:55:41;;;;;;;;;0.00;0.00;;;;;16.54;76.58;100430.06;2081356;28;46866;-62
2022/12/31 02:57:00;;;;;;;;;0.33;0.00;;;;;16.55;76.46;100413.03;2078890;28;45975;-62
2022/12/31 02:58:18;;;;;;;;;2.00;0.75;;;;;16.56;76.38;100434.38;2079382;28;45328;-63
2022/12/31 03:02:22;;;;;;;;;1.25;0.75;;;;;16.56;76.23;100446.91;2077402;28;46952;-61
2022/12/31 03:03:24;;;;;;;;;0.00;0.00;;;;;16.55;76.15;100445.19;2078073;28;47507;-61
2022/12/31 03:04:31;;;;;;;;;0.25;0.00;;;;;16.55;76.46;100419.25;2074572;28;46395;-61
2022/12/31 03:05:37;;;;;;;;;0.00;0.00;;;;;16.56;76.30;100417.44;2085420;28;45716;-61
2022/12/31 03:06:40;;;;;;;;;0.00;0.00;;;;;16.54;76.43;100419.34;2086194;28;46461;-61
2022/12/31 03:07:42;;;;;;;;;0.00;0.00;;;;;16.55;76.04;100432.66;2087155;28;46500;-62
2022/12/31 03:10:02;;;;;;;;;2.75;1.75;;;;;16.57;76.08;100440.59;2078804;28;46926;-61
2022/12/31 03:12:44;;;;;;;;;0.00;0.00;;;;;16.57;76.19;100430.75;2071124;28;45564;-61
2022/12/31 03:13:45;;;;;;;;;0.25;0.00;;;;;16.57;76.02;100438.78;2071408;28;46615;-62
2022/12/31 03:14:45;;;;;;;;;1.00;1.00;;;;;16.57;75.81;100432.56;2078027;28;46341;-62
2022/12/31 03:15:45;;;;;;;;;0.00;0.00;;;;;16.57;76.04;100441.47;2087132;28;46834;-62
2022/12/31 03:16:47;;;;;;;;;0.00;0.00;;;;;16.57;76.02;100451.31;2087279;28;46573;-62
2022/12/31 03:18:12;;;;;;;;;0.00;0.00;;;;;16.57;75.86;100445.97;2086319;28;46766;-63
2022/12/31 03:23:16;;;;;;;;;0.00;0.00;;;;;16.57;75.56;100440.59;2073998;28;46587;-61
2022/12/31 03:25:38;;;;;;;;;1.00;1.00;;;;;16.56;75.64;100444.22;2062922;28;46026;-61
2022/12/31 03:26:39;;;;;;;;;1.50;1.50;;;;;16.55;75.53;100439.81;2075541;28;46901;-62
2022/12/31 03:27:39;;;;;;;;;0.67;0.67;;;;;16.56;76.08;100450.47;2074965;28;45238;-61
2022/12/31 03:28:46;;;;;;;;;0.00;0.00;;;;;16.55;75.65;100443.38;2070835;28;45139;-62
2022/12/31 03:29:46;;;;;;;;;1.25;1.00;;;;;16.55;75.66;100439.81;2069181;28;46667;-61
2022/12/31 03:30:50;;;;;;;;;0.00;0.00;;;;;16.55;75.59;100448.72;2078195;28;46386;-61
2022/12/31 03:31:50;;;;;;;;;0.00;0.00;;;;;16.55;75.69;100458.56;2078202;28;45749;-61
2022/12/31 03:32:52;;;;;;;;;0.00;0.00;;;;;16.55;75.72;100462.13;2079392;28;46325;-61
2022/12/31 03:33:52;;;;;;;;;1.75;1.75;;;;;16.55;75.51;100459.44;2079096;28;46346;-62
2022/12/31 03:34:52;;;;;;;;;0.00;0.00;;;;;16.55;75.55;100459.44;2076595;28;46570;-61
2022/12/31 03:35:53;;;;;;;;;0.00;0.00;;;;;16.54;75.36;100471.09;2076578;28;46559;-61
2022/12/31 03:36:53;;;;;;;;;0.00;0.00;;;;;16.54;75.49;100455.03;2079035;28;46543;-62
2022/12/31 03:37:55;;;;;;;;;1.00;1.00;;;;;16.55;75.69;100470.16;2072405;28;46670;-61
2022/12/31 03:38:55;;;;;;;;;0.00;0.00;;;;;16.55;75.38;100469.28;2070576;28;46351;-61
2022/12/31 03:39:56;;;;;;;;;1.00;0.00;;;;;16.54;75.21;100451.50;2070334;28;46383;-62
2022/12/31 03:40:56;;;;;;;;;0.00;0.00;;;;;16.54;75.52;100465.75;2059345;28;46200;-61
2022/12/31 03:41:56;;;;;;;;;0.00;0.00;;;;;16.53;75.29;100452.44;2062421;28;46516;-61
2022/12/31 03:42:57;;;;;;;;;0.00;0.00;;;;;16.53;75.26;100460.47;2064419;28;47239;-61
2022/12/31 03:43:57;;;;;;;;;0.00;0.00;;;;;16.52;75.20;100464.97;2064671;28;45665;-62
2022/12/31 03:44:58;;;;;;;;;2.67;1.00;;;;;16.52;75.23;100464.97;2062289;28;46335;-62
2022/12/31 03:46:00;;;;;;;;;1.00;1.00;;;;;16.52;75.25;100474.81;2064518;28;46534;-61
2022/12/31 03:47:00;;;;;;;;;0.00;0.00;;;;;16.52;74.92;100461.41;2054384;28;46595;-62
2022/12/31 03:48:02;;;;;;;;;1.33;1.33;;;;;16.52;74.82;100467.66;2046121;28;46443;-61
2022/12/31 03:49:02;;;;;;;;;1.50;1.50;;;;;16.53;75.02;100460.47;2054204;28;46679;-62
2022/12/31 03:50:04;;;;;;;;;0.33;0.33;;;;;16.52;75.24;100470.31;2054502;28;47195;-62
2022/12/31 03:51:04;;;;;;;;;0.25;0.25;;;;;16.53;74.96;100468.50;2062042;28;46847;-62
2022/12/31 03:52:05;;;;;;;;;1.00;1.00;;;;;16.53;75.15;100479.22;2063464;28;46455;-62
2022/12/31 03:53:05;;;;;;;;;0.00;0.00;;;;;16.52;75.32;100464.97;2062577;28;46727;-61
2022/12/31 03:54:06;;;;;;;;;0.00;0.00;;;;;16.53;75.05;100476.53;2062497;28;46482;-61
2022/12/31 03:55:07;;;;;;;;;1.00;0.00;;;;;16.53;75.06;100466.69;2063094;28;46514;-62
2022/12/31 03:56:08;;;;;;;;;0.75;0.75;;;;;16.54;74.94;100470.25;2058906;28;46459;-61
2022/12/31 03:57:08;;;;;;;;;0.00;0.00;;;;;16.54;74.92;100472.91;2078958;28;46662;-61
2022/12/31 03:58:09;;;;;;;;;0.67;0.67;;;;;16.53;75.21;100464.03;2088356;28;46560;-61
2022/12/31 03:59:09;;;;;;;;;0.00;0.00;;;;;16.54;74.98;100471.09;2088500;28;46602;-61
2022/12/31 04:00:13;;;;;;;;;1.00;0.00;;;;;16.55;74.55;100461.25;2081839;28;45825;-61
2022/12/31 04:01:13;;;;;;;;;0.00;0.00;;;;;16.54;74.65;100468.44;2089295;28;46501;-61
2022/12/31 04:02:14;;;;;;;;;2.00;1.00;;;;;16.55;74.51;100453.22;2086967;28;46145;-61
2022/12/31 04:03:14;;;;;;;;;0.00;0.00;;;;;16.55;74.97;100464.81;2083171;28;46936;-61
2022/12/31 04:04:14;;;;;;;;;0.00;0.00;;;;;16.54;74.87;100480.94;2088511;28;46695;-61
2022/12/31 04:05:16;;;;;;;;;0.00;0.00;;;;;16.54;74.37;100468.44;2092192;28;46657;-61
2022/12/31 04:06:16;;;;;;;;;1.00;1.00;;;;;16.53;74.58;100461.34;2096491;28;46787;-61
2022/12/31 04:07:17;;;;;;;;;0.33;0.33;;;;;16.54;74.77;100472.91;2089527;28;46244;-62
2022/12/31 04:08:17;;;;;;;;;1.00;1.00;;;;;16.54;74.64;100464.88;2084993;28;46440;-62
2022/12/31 04:09:17;;;;;;;;;0.00;0.00;;;;;16.55;74.85;100461.25;2088530;28;46195;-61
2022/12/31 04:10:18;;;;;;;;;0.00;0.00;;;;;16.54;74.33;100468.44;2088724;28;45787;-61
2022/12/31 04:11:18;;;;;;;;;0.00;0.00;;;;;16.54;74.72;100451.50;2088855;28;46166;-62
2022/12/31 04:12:19;;;;;;;;;0.00;0.00;;;;;16.54;74.48;100468.44;2099439;27;46910;-62
2022/12/31 04:13:19;;;;;;;;;1.00;1.00;;;;;16.54;74.22;100464.88;2110014;27;45071;-61
2022/12/31 04:14:19;;;;;;;;;2.67;1.00;;;;;16.54;74.13;100460.38;2105799;28;46617;-61
2022/12/31 04:15:20;;;;;;;;;0.67;0.67;;;;;16.54;74.14;100468.44;2113277;27;45602;-61
2022/12/31 04:16:21;;;;;;;;;0.00;0.00;;;;;16.52;74.13;100470.31;2114242;27;46755;-61
2022/12/31 04:17:21;;;;;;;;;2.00;2.00;;;;;16.52;74.42;100477.50;2114500;27;46759;-62
2022/12/31 04:18:21;;;;;;;;;1.00;1.00;;;;;16.53;74.35;100473.88;2114396;27;46601;-62
2022/12/31 04:19:22;;;;;;;;;0.67;0.67;;;;;16.51;73.79;100471.22;2114134;27;45795;-62
2022/12/31 04:20:22;;;;;;;;;1.00;1.00;;;;;16.51;74.24;100455.16;2114087;27;46719;-62
2022/12/31 04:21:22;;;;;;;;;1.00;1.00;;;;;16.52;74.12;100454.25;2112744;27;46274;-62
2022/12/31 04:22:23;;;;;;;;;0.67;0.33;;;;;16.52;74.34;100446.22;2106536;28;45931;-62
2022/12/31 04:23:23;;;;;;;;;1.00;1.00;;;;;16.51;73.77;100457.84;2110494;27;46811;-62
2022/12/31 04:24:23;;;;;;;;;0.00;0.00;;;;;16.52;74.13;100445.34;2112343;27;45841;-61
2022/12/31 04:25:24;;;;;;;;;2.00;1.00;;;;;16.51;73.88;100447.13;2113970;27;46542;-61
2022/12/31 04:26:24;;;;;;;;;1.00;0.00;;;;;16.51;74.44;100448.94;2112546;27;46619;-60
2022/12/31 04:27:24;;;;;;;;;1.00;1.00;;;;;16.53;74.42;100452.44;2105749;28;46530;-61
2022/12/31 04:28:25;;;;;;;;;0.33;0.00;;;;;16.53;74.06;100444.41;2102886;28;46801;-61
2022/12/31 04:29:25;;;;;;;;;1.00;0.00;;;;;16.52;74.40;100445.34;2112458;27;46166;-61
2022/12/31 04:30:26;;;;;;;;;0.00;0.00;;;;;16.51;74.40;100441.78;2114567;27;46805;-62
2022/12/31 04:31:26;;;;;;;;;1.33;1.33;;;;;16.51;74.29;100440.91;2114292;27;47371;-61
2022/12/31 04:32:26;;;;;;;;;1.33;1.33;;;;;16.50;73.90;100442.72;2112984;27;46470;-61
2022/12/31 04:33:27;;;;;;;;;0.00;0.00;;;;;16.52;74.01;100437.31;2113478;27;46264;-60
2022/12/31 04:34:27;;;;;;;;;1.33;1.00;;;;;16.51;74.01;100433.72;2112313;27;46423;-62
2022/12/31 04:35:27;;;;;;;;;2.00;0.33;;;;;16.51;74.32;100451.63;2114721;27;45548;-61
2022/12/31 04:36:28;;;;;;;;;1.33;1.33;;;;;16.51;73.91;100452.47;2112297;27;46756;-61
2022/12/31 04:37:28;;;;;;;;;0.33;0.33;;;;;16.51;73.86;100478.41;2112511;27;46211;-61
2022/12/31 04:38:29;;;;;;;;;0.33;0.33;;;;;16.52;73.99;100472.13;2114333;27;46287;-61
2022/12/31 04:39:29;;;;;;;;;2.33;0.67;;;;;16.52;73.63;100478.34;2113254;27;46212;-61
2022/12/31 04:40:30;;;;;;;;;0.33;0.33;;;;;16.51;73.66;100463.19;2113679;27;45866;-61
2022/12/31 04:41:30;;;;;;;;;1.00;1.00;;;;;16.52;73.55;100459.59;2113254;27;46580;-61
2022/12/31 04:42:31;;;;;;;;;0.00;0.00;;;;;16.53;73.91;100464.03;2113182;27;46477;-61
2022/12/31 04:43:31;;;;;;;;;0.00;0.00;;;;;16.54;74.08;100480.94;2114797;27;45080;-62
2022/12/31 04:44:33;;;;;;;;;1.00;1.00;;;;;16.54;73.52;100468.44;2108243;27;46405;-62
2022/12/31 04:45:36;;;;;;;;;1.00;0.00;;;;;16.54;73.70;100463.06;2106287;27;46844;-62
2022/12/31 04:46:37;;;;;;;;;0.00;0.00;;;;;16.54;73.73;100475.59;2105744;28;46336;-61
2022/12/31 04:47:37;;;;;;;;;0.33;0.33;;;;;16.55;73.51;100458.56;2110636;27;46771;-62
2022/12/31 04:48:38;;;;;;;;;0.00;0.00;;;;;16.55;73.58;100475.50;2114412;27;46415;-62
2022/12/31 04:49:38;;;;;;;;;3.00;1.67;;;;;16.55;74.00;100464.81;2087841;28;46552;-62
2022/12/31 04:50:38;;;;;;;;;0.33;0.33;;;;;16.55;74.03;100470.16;2088032;28;46865;-62
2022/12/31 04:51:39;;;;;;;;;0.33;0.33;;;;;16.55;73.88;100458.56;2087916;28;45916;-62
2022/12/31 04:52:39;;;;;;;;;0.33;0.33;;;;;16.56;73.58;100457.63;2077939;28;46824;-61
2022/12/31 04:53:40;;;;;;;;;1.00;0.00;;;;;16.57;73.66;100459.38;2078945;28;45863;-61
2022/12/31 04:54:40;;;;;;;;;0.67;0.67;;;;;16.58;73.55;100447.69;2087856;28;46515;-62
2022/12/31 04:55:40;;;;;;;;;1.67;0.67;;;;;16.58;73.51;100459.28;2090680;28;46643;-61
2022/12/31 04:56:41;;;;;;;;;1.00;1.00;;;;;16.58;73.64;100479.84;2088290;28;46233;-61
2022/12/31 04:57:41;;;;;;;;;1.33;0.67;;;;;16.58;73.58;100456.59;2088143;28;46747;-62
2022/12/31 04:58:42;;;;;;;;;1.33;1.33;;;;;16.58;73.48;100464.63;2094585;28;46574;-62
2022/12/31 04:59:42;;;;;;;;;1.00;1.00;;;;;16.58;73.33;100470.00;2087821;28;46635;-62
2022/12/31 05:00:45;;;;;;;;;1.00;0.33;;;;;16.58;73.40;100461.09;2093412;28;45639;-60
2022/12/31 05:01:45;;;;;;;;;1.00;1.00;;;;;16.59;73.27;100460.16;2095242;28;46495;-61
2022/12/31 05:02:45;;;;;;;;;0.00;0.00;;;;;16.58;72.91;100451.25;2088105;28;46826;-61
2022/12/31 05:03:46;;;;;;;;;2.33;1.33;;;;;16.58;73.46;100456.59;2084316;28;46745;-61
2022/12/31 05:04:46;;;;;;;;;0.00;0.00;;;;;16.58;73.52;100461.97;2087939;28;46359;-61
2022/12/31 05:05:48;;;;;;;;;1.00;0.00;;;;;16.60;73.31;100465.44;2095006;28;46315;-61
2022/12/31 05:06:49;;;;;;;;;0.00;0.00;;;;;16.60;73.15;100469.91;2093420;28;46191;-61